Skip Navigation Links
NOAA logo - Click to go to the NOAA homepage
NOAA's National Weather Service
Alaska Aviation Weather Unit
  NWS logo - Click to go to the NWS homepage
Left Navbar Graphic     09 AKDT = 17 GMT

   
NOAA is celebrating 200 years of science, service, and stewardship. Visit the NOAA 200th celebration Web site to learn more.
USA.gov is the U.S. Government's official Web portal to all Federal, state and local government Web resources and services.
Facebook
NWS on Facebook

Important Change Regarding the AAWU Web Presence

 

Over the last several months, the AAWU has been working to navigate its webpages to a nationally supported server. Security, as well as other needs, have necessitated the change.  In the process, we have made an effort to enhance the functionality of our website, as well as some of our products. As of June 20, 2017, aawu.arh.noaa.gov will be discontinued. The new AAWU web address is weather.gov/aawu. It is now live and will run in-parallel with the old site until it is discontinued. Please send any feedback or questions regarding the new webpages to nws.ar.aawu.webauthors@noaa.gov.  Thank you for your patience during this time of transition.
AAWU Home :: Display TAF Add Bookmark
TAF PAFB 260518Z 2605/2710 12009KT 8000 -SHRA BKN023 OVC040
      610307 QNH2980INS
      BECMG 2606/2607 28006KT 9999 NSW BKN060 610604 QNH2982INS
      BECMG 2615/2616 26012KT 8000 -SHRA BKN030 610307 QNH2992INS
      BECMG 2705/2706 26009KT 9999 NSW SCT100 QNH2999INS
      TX16/2703Z
      TN04/2613Z
      LAST NO AMDS AFT 2605
      NEXT 3012=
METAR PAFB 271158Z AUTO 11003KT 10SM CLR 02/M01 A3003=

METAR PAFB 271258Z AUTO 00000KT 10SM SCT100 02/M01 A3004=

PAFB 271358Z AUTO 00000KT 9SM BKN095 02/M01 A3005=

METAR PAFB 271458Z AUTO 00000KT 9SM BKN070 OVC085 03/M01 A3005=

METAR PAFB 271558Z AUTO VRB03KT 10SM BKN095 06/M01 A3005=

METAR PAFB 271658Z AUTO 00000KT 10SM OVC075 08/M01 A3005=


NOAA's National Weather Service
Alaska Aviation Weather Unit
6930 Sand Lake Road
Anchorage, AK 99502-1845
Disclaimer
Credits
Glossary
Privacy Policy
About Us
Career Opportunities
Contact AAWU Internet Services Site last modified: April, 17th 2012